Time;durP1;ratioP1;P1;durP2;ratioP2;P2;SDS_P1;SDS_P2;PMS_P1;PMS_P2;Temp;Humidity;BMP_temperature;BMP_pressure;BME280_temperature;BME280_humidity;BME280_pressure;Samples;Min_cycle;Max_cycle;Signal;HPM_P1;HPM_P2
2023/09/16 00:00:54;;;;;;;25.02;23.27;;;;;;;;;;5013523;28;20014;-56
2023/09/16 00:03:19;;;;;;;29.65;27.60;;;;;;;;;;5019229;28;20025;-56
2023/09/16 00:05:44;;;;;;;98.97;92.50;;;;;;;;;;5023697;28;20096;-56
2023/09/16 00:08:09;;;;;;;37.53;34.93;;;;;;;;;;5025502;28;20018;-56
2023/09/16 00:10:34;;;;;;;46.30;43.13;;;;;;;;;;5018556;28;20028;-56
2023/09/16 00:13:00;;;;;;;33.50;31.10;;;;;;;;;;5018962;28;20026;-56
2023/09/16 00:15:26;;;;;;;32.50;30.20;;;;;;;;;;5018973;28;20029;-57
2023/09/16 00:17:51;;;;;;;95.17;89.27;;;;;;;;;;5016804;28;20025;-56
2023/09/16 00:20:16;;;;;;;40.40;37.77;;;;;;;;;;5021446;28;20450;-57
2023/09/16 00:22:45;;;;;;;33.50;31.20;;;;;;;;;;5026817;28;20113;-55
2023/09/16 00:25:14;;;;;;;92.72;86.95;;;;;;;;;;5016655;28;20045;-56
2023/09/16 00:27:39;;;;;;;77.45;72.53;;;;;;;;;;5022910;28;20029;-57
2023/09/16 00:30:04;;;;;;;38.07;35.67;;;;;;;;;;5016903;28;20487;-57
2023/09/16 00:32:31;;;;;;;31.23;29.08;;;;;;;;;;5015487;28;20033;-56
2023/09/16 00:34:57;;;;;;;35.85;33.38;;;;;;;;;;5017691;28;20113;-57
2023/09/16 00:37:22;;;;;;;59.78;55.83;;;;;;;;;;5017648;28;20481;-56
2023/09/16 00:39:47;;;;;;;29.17;27.10;;;;;;;;;;5012188;28;20029;-58
2023/09/16 00:42:12;;;;;;;38.47;36.07;;;;;;;;;;5018196;28;20060;-57
2023/09/16 00:44:38;;;;;;;36.87;34.37;;;;;;;;;;5025402;28;20014;-56
2023/09/16 00:47:03;;;;;;;49.63;46.47;;;;;;;;;;5017511;28;20018;-57
2023/09/16 00:49:30;;;;;;;39.47;36.87;;;;;;;;;;5029438;28;20473;-58
2023/09/16 00:51:56;;;;;;;79.53;74.60;;;;;;;;;;5021896;28;20471;-58
2023/09/16 00:54:21;;;;;;;48.85;45.58;;;;;;;;;;5024692;28;20048;-58
2023/09/16 00:56:47;;;;;;;71.93;67.47;;;;;;;;;;5022855;28;20486;-58
2023/09/16 00:59:12;;;;;;;47.25;44.05;;;;;;;;;;5030000;28;20029;-57
2023/09/16 01:01:38;;;;;;;95.20;89.40;;;;;;;;;;5020143;28;20021;-57
2023/09/16 01:04:03;;;;;;;25.05;23.10;;;;;;;;;;5032552;28;20100;-58
2023/09/16 01:06:30;;;;;;;41.33;38.33;;;;;;;;;;5023949;28;20027;-57
2023/09/16 01:08:55;;;;;;;27.23;25.35;;;;;;;;;;5020337;28;20022;-58
2023/09/16 01:11:24;;;;;;;67.20;62.97;;;;;;;;;;5022897;28;20087;-58
2023/09/16 01:13:50;;;;;;;63.67;59.60;;;;;;;;;;5022331;28;20033;-58
2023/09/16 01:16:36;;;;;;;60.35;56.53;;;;;;;;;;5017827;28;20097;-58
2023/09/16 01:19:11;;;;;;;40.28;37.63;;;;;;;;;;5012426;28;20014;-58
2023/09/16 01:21:37;;;;;;;38.22;35.63;;;;;;;;;;5013331;28;20031;-57
2023/09/16 01:24:15;;;;;;;33.25;31.08;;;;;;;;;;5012427;28;20089;-58
2023/09/16 01:26:41;;;;;;;49.60;46.45;;;;;;;;;;5026941;28;20479;-58
2023/09/16 01:29:06;;;;;;;48.57;45.30;;;;;;;;;;5017098;28;20108;-57
2023/09/16 01:31:31;;;;;;;60.63;56.90;;;;;;;;;;5016310;28;20094;-57
2023/09/16 01:33:58;;;;;;;30.00;27.83;;;;;;;;;;5014507;28;20053;-58
2023/09/16 01:36:25;;;;;;;61.83;58.03;;;;;;;;;;5013093;28;20021;-58
2023/09/16 01:38:53;;;;;;;41.50;38.65;;;;;;;;;;5014314;28;21044;-56
2023/09/16 01:41:19;;;;;;;39.97;37.22;;;;;;;;;;5018552;28;20018;-56
2023/09/16 01:43:45;;;;;;;73.63;68.97;;;;;;;;;;5016333;28;20052;-56
2023/09/16 01:46:10;;;;;;;83.68;78.43;;;;;;;;;;5017307;28;20109;-56
2023/09/16 01:48:36;;;;;;;54.25;50.65;;;;;;;;;;5012332;28;20481;-55
2023/09/16 01:51:01;;;;;;;51.17;47.87;;;;;;;;;;5012140;28;20121;-56
2023/09/16 01:53:26;;;;;;;81.57;76.27;;;;;;;;;;5012581;28;20025;-56
2023/09/16 01:55:51;;;;;;;25.97;24.07;;;;;;;;;;5018938;28;20022;-55
2023/09/16 01:58:16;;;;;;;38.10;35.53;;;;;;;;;;5018134;28;20474;-56
2023/09/16 02:00:42;;;;;;;32.47;30.30;;;;;;;;;;5013290;28;20029;-57
2023/09/16 02:03:07;;;;;;;29.58;27.48;;;;;;;;;;5013055;28;20298;-56
2023/09/16 02:05:32;;;;;;;48.13;44.35;;;;;;;;;;5012284;28;20093;-56
2023/09/16 02:07:58;;;;;;;29.70;27.53;;;;;;;;;;5013227;28;20067;-56
2023/09/16 02:10:23;;;;;;;145.10;136.15;;;;;;;;;;5016641;28;20014;-55
2023/09/16 02:12:48;;;;;;;33.43;31.23;;;;;;;;;;5011735;28;20033;-56
2023/09/16 02:15:14;;;;;;;29.27;27.30;;;;;;;;;;5019865;28;20112;-56
2023/09/16 02:17:39;;;;;;;58.37;54.57;;;;;;;;;;5019695;28;20029;-56
2023/09/16 02:20:05;;;;;;;38.73;36.17;;;;;;;;;;5016324;28;20021;-56
2023/09/16 02:22:31;;;;;;;39.28;36.58;;;;;;;;;;5019843;28;20397;-56
2023/09/16 02:24:56;;;;;;;63.10;59.03;;;;;;;;;;5021372;28;20022;-55
2023/09/16 02:27:21;;;;;;;97.20;91.30;;;;;;;;;;5027241;28;20104;-55
2023/09/16 02:29:48;;;;;;;93.37;87.80;;;;;;;;;;5013996;28;20227;-56
2023/09/16 02:32:13;;;;;;;71.40;66.75;;;;;;;;;;5022743;28;20021;-55
2023/09/16 02:34:38;;;;;;;34.10;31.80;;;;;;;;;;5022169;28;20029;-56
2023/09/16 02:37:03;;;;;;;30.57;28.43;;;;;;;;;;5028288;28;20041;-56
2023/09/16 02:39:28;;;;;;;34.40;32.20;;;;;;;;;;5016180;28;20477;-56
2023/09/16 02:41:54;;;;;;;61.40;57.45;;;;;;;;;;5013167;28;20017;-57
2023/09/16 02:44:19;;;;;;;71.63;67.22;;;;;;;;;;5013928;28;20470;-56
2023/09/16 02:46:44;;;;;;;40.97;38.13;;;;;;;;;;5015559;28;20103;-56
2023/09/16 02:49:09;;;;;;;103.87;96.57;;;;;;;;;;5013906;28;20029;-57
2023/09/16 02:51:34;;;;;;;66.17;62.03;;;;;;;;;;5014408;28;20045;-56
2023/09/16 02:54:01;;;;;;;68.15;63.78;;;;;;;;;;5021648;28;20026;-56
2023/09/16 02:56:26;;;;;;;50.72;47.40;;;;;;;;;;5011072;28;20014;-56
2023/09/16 02:58:52;;;;;;;84.85;79.78;;;;;;;;;;5010377;28;20548;-56
2023/09/16 03:01:17;;;;;;;38.83;36.28;;;;;;;;;;5011045;28;20030;-56
2023/09/16 03:03:43;;;;;;;66.03;62.00;;;;;;;;;;5018593;28;20085;-56
2023/09/16 03:06:08;;;;;;;92.10;86.15;;;;;;;;;;5011108;28;20018;-56
2023/09/16 03:08:34;;;;;;;53.60;50.08;;;;;;;;;;5011320;28;20025;-56
2023/09/16 03:11:00;;;;;;;81.97;76.87;;;;;;;;;;5011333;28;20021;-55
2023/09/16 03:13:25;;;;;;;52.20;48.65;;;;;;;;;;5010800;28;20385;-56
2023/09/16 03:16:10;;;;;;;26.67;24.80;;;;;;;;;;5012993;28;20112;-56
2023/09/16 03:18:35;;;;;;;25.38;23.58;;;;;;;;;;5010271;28;20026;-56
2023/09/16 03:21:00;;;;;;;55.10;51.63;;;;;;;;;;5010711;28;20053;-55
2023/09/16 03:23:27;;;;;;;50.33;47.13;;;;;;;;;;5013311;28;20065;-58
2023/09/16 03:25:52;;;;;;;87.90;82.43;;;;;;;;;;5010704;28;20025;-58
2023/09/16 03:28:18;;;;;;;38.92;36.40;;;;;;;;;;5025070;28;20025;-56
2023/09/16 03:30:43;;;;;;;40.53;37.90;;;;;;;;;;5020818;28;20021;-56
2023/09/16 03:33:09;;;;;;;47.45;44.42;;;;;;;;;;5014349;28;20394;-56
2023/09/16 03:35:34;;;;;;;32.03;29.83;;;;;;;;;;5020479;28;20356;-56
2023/09/16 03:38:00;;;;;;;134.68;125.80;;;;;;;;;;5024211;28;20025;-57
2023/09/16 03:40:25;;;;;;;64.80;60.80;;;;;;;;;;5021405;28;20486;-56
2023/09/16 03:42:50;;;;;;;55.73;52.27;;;;;;;;;;5017016;28;20443;-56
2023/09/16 03:45:15;;;;;;;74.57;70.20;;;;;;;;;;5014640;28;20047;-55
2023/09/16 03:47:40;;;;;;;46.73;43.83;;;;;;;;;;5026867;28;20056;-56
2023/09/16 03:50:06;;;;;;;50.90;47.70;;;;;;;;;;5025103;28;20463;-56
2023/09/16 03:52:31;;;;;;;77.55;72.93;;;;;;;;;;5014110;28;20037;-56
2023/09/16 03:54:56;;;;;;;47.77;44.67;;;;;;;;;;5010511;28;20093;-57
2023/09/16 03:57:21;;;;;;;46.72;43.78;;;;;;;;;;5014032;28;20080;-57
2023/09/16 03:59:46;;;;;;;37.93;35.27;;;;;;;;;;5009434;28;20022;-57
2023/09/16 04:02:12;;;;;;;98.47;92.23;;;;;;;;;;5019577;28;20709;-56
2023/09/16 04:04:37;;;;;;;28.20;26.00;;;;;;;;;;5024558;28;20018;-57
2023/09/16 04:07:02;;;;;;;96.90;90.80;;;;;;;;;;5014144;28;20426;-57
2023/09/16 04:09:27;;;;;;;91.25;85.60;;;;;;;;;;5010012;28;20500;-57
2023/09/16 04:11:53;;;;;;;82.18;77.03;;;;;;;;;;5017311;28;20064;-57
2023/09/16 04:14:20;;;;;;;65.90;61.80;;;;;;;;;;5010529;28;20042;-58
2023/09/16 04:16:47;;;;;;;81.75;76.30;;;;;;;;;;5016615;28;20058;-57
2023/09/16 04:19:12;;;;;;;111.80;104.80;;;;;;;;;;5015258;28;20033;-56
2023/09/16 04:21:37;;;;;;;75.03;70.13;;;;;;;;;;5012119;28;20022;-55
2023/09/16 04:24:03;;;;;;;28.45;26.20;;;;;;;;;;5015918;28;20767;-55
2023/09/16 04:26:28;;;;;;;60.42;56.47;;;;;;;;;;5013950;28;20018;-56
2023/09/16 04:28:53;;;;;;;92.80;86.87;;;;;;;;;;5019858;28;20115;-56
2023/09/16 04:31:18;;;;;;;55.50;52.07;;;;;;;;;;5013888;28;20029;-56
2023/09/16 04:33:44;;;;;;;133.90;125.70;;;;;;;;;;5025522;28;20571;-56
2023/09/16 04:36:09;;;;;;;101.63;94.73;;;;;;;;;;5014307;28;20026;-56
2023/09/16 04:38:34;;;;;;;60.70;56.47;;;;;;;;;;5013742;28;20026;-56
2023/09/16 04:41:00;;;;;;;43.80;40.90;;;;;;;;;;5013186;28;20115;-56
2023/09/16 04:43:28;;;;;;;55.17;51.70;;;;;;;;;;5014891;28;20492;-56
2023/09/16 04:45:54;;;;;;;33.97;31.60;;;;;;;;;;5013818;28;20036;-56
2023/09/16 04:48:22;;;;;;;158.45;148.13;;;;;;;;;;5016109;28;20022;-56
2023/09/16 04:50:47;;;;;;;122.75;114.90;;;;;;;;;;5020164;28;20013;-56
2023/09/16 04:53:13;;;;;;;50.25;47.08;;;;;;;;;;5017876;28;20105;-56
2023/09/16 04:55:38;;;;;;;49.60;46.60;;;;;;;;;;5020513;28;20052;-55
2023/09/16 04:58:03;;;;;;;61.67;57.87;;;;;;;;;;5022453;28;20025;-56
2023/09/16 05:00:33;;;;;;;52.00;48.47;;;;;;;;;;5021429;28;20052;-57
2023/09/16 05:02:58;;;;;;;96.85;90.82;;;;;;;;;;5018695;28;20022;-55
2023/09/16 05:05:23;;;;;;;57.90;54.30;;;;;;;;;;5016201;28;20025;-55
2023/09/16 05:07:48;;;;;;;82.10;77.00;;;;;;;;;;5024658;28;20437;-56
2023/09/16 05:10:14;;;;;;;52.37;49.03;;;;;;;;;;5017989;28;20152;-56
2023/09/16 05:12:39;;;;;;;81.82;76.85;;;;;;;;;;5030436;28;20026;-56
2023/09/16 05:15:05;;;;;;;62.78;58.60;;;;;;;;;;5019779;28;20481;-56
2023/09/16 05:17:30;;;;;;;35.17;32.90;;;;;;;;;;5011659;28;20014;-55
2023/09/16 05:19:55;;;;;;;72.45;67.93;;;;;;;;;;5024160;28;20595;-57
2023/09/16 05:22:20;;;;;;;50.97;47.77;;;;;;;;;;5024842;28;20129;-56
2023/09/16 05:24:45;;;;;;;101.38;95.00;;;;;;;;;;5016433;28;20108;-56
2023/09/16 05:27:11;;;;;;;48.30;45.13;;;;;;;;;;5013279;28;20029;-56
2023/09/16 05:29:36;;;;;;;77.27;72.33;;;;;;;;;;5014024;28;20516;-56
2023/09/16 05:32:01;;;;;;;54.40;50.90;;;;;;;;;;5012929;28;20033;-56
2023/09/16 05:34:26;;;;;;;92.03;85.83;;;;;;;;;;5028384;28;20428;-56
2023/09/16 05:36:51;;;;;;;80.85;75.88;;;;;;;;;;5021399;28;20022;-56
2023/09/16 05:39:16;;;;;;;45.25;42.40;;;;;;;;;;5015707;28;20037;-56
2023/09/16 05:41:43;;;;;;;177.57;166.37;;;;;;;;;;5013020;28;20096;-56
2023/09/16 05:44:08;;;;;;;57.92;54.22;;;;;;;;;;5020147;28;20014;-55
2023/09/16 05:46:33;;;;;;;84.90;79.77;;;;;;;;;;5020982;28;20025;-56
2023/09/16 05:49:06;;;;;;;54.80;50.97;;;;;;;;;;5023765;28;20543;-57
2023/09/16 05:51:32;;;;;;;56.47;52.50;;;;;;;;;;5023002;28;20025;-56
2023/09/16 05:53:57;;;;;;;64.90;60.92;;;;;;;;;;5041406;28;20530;-56
2023/09/16 05:56:22;;;;;;;82.35;77.13;;;;;;;;;;5051902;28;20019;-56
2023/09/16 05:58:47;;;;;;;77.07;72.37;;;;;;;;;;5037516;28;20041;-56
2023/09/16 06:01:12;;;;;;;86.32;80.90;;;;;;;;;;5019458;28;20068;-56
2023/09/16 06:03:37;;;;;;;29.87;27.77;;;;;;;;;;5017388;28;20097;-56
2023/09/16 06:06:03;;;;;;;81.10;75.73;;;;;;;;;;5022690;28;20026;-56
2023/09/16 06:08:28;;;;;;;66.10;61.93;;;;;;;;;;5016295;28;20025;-56
2023/09/16 06:10:54;;;;;;;59.80;55.67;;;;;;;;;;5011679;28;20034;-56
2023/09/16 06:13:19;;;;;;;61.00;57.08;;;;;;;;;;5021235;28;20044;-56
2023/09/16 06:15:45;;;;;;;41.67;38.95;;;;;;;;;;5019905;28;20492;-56
2023/09/16 06:18:10;;;;;;;66.63;62.50;;;;;;;;;;5024823;28;20531;-57
2023/09/16 06:20:35;;;;;;;135.63;126.73;;;;;;;;;;5020892;28;20234;-56
2023/09/16 06:23:04;;;;;;;81.77;76.70;;;;;;;;;;5019614;28;20025;-56
2023/09/16 06:25:29;;;;;;;35.40;32.90;;;;;;;;;;5028203;28;20469;-56
2023/09/16 06:27:56;;;;;;;65.50;61.13;;;;;;;;;;5018561;28;20021;-56
2023/09/16 06:30:21;;;;;;;;;;;;;;;;;;5015656;28;20037;-56
2023/09/16 06:32:46;;;;;;;81.28;76.32;;;;;;;;;;5018526;28;19917;-57
2023/09/16 06:35:11;;;;;;;89.03;83.53;;;;;;;;;;5021012;28;20630;-56
2023/09/16 06:37:36;;;;;;;37.40;34.97;;;;;;;;;;5013639;28;20116;-56
2023/09/16 06:40:02;;;;;;;56.88;53.15;;;;;;;;;;5030450;28;20021;-56
2023/09/16 06:42:27;;;;;;;88.20;82.60;;;;;;;;;;5015705;28;20056;-57
2023/09/16 06:44:54;;;;;;;72.63;67.97;;;;;;;;;;5016785;28;20169;-56
2023/09/16 06:47:25;;;;;;;37.30;34.95;;;;;;;;;;5026395;28;20022;-56
2023/09/16 06:49:50;;;;;;;48.47;45.33;;;;;;;;;;5019458;28;20026;-56
2023/09/16 06:52:15;;;;;;;45.20;42.10;;;;;;;;;;5015031;28;20492;-56
2023/09/16 06:54:41;;;;;;;49.42;46.38;;;;;;;;;;5021967;28;20032;-56
2023/09/16 06:57:06;;;;;;;160.32;149.50;;;;;;;;;;5022077;28;20021;-56
2023/09/16 06:59:31;;;;;;;138.37;129.63;;;;;;;;;;5026572;28;20022;-56
2023/09/16 07:01:57;;;;;;;95.87;89.70;;;;;;;;;;5022545;28;20021;-58
2023/09/16 07:04:24;;;;;;;133.30;124.20;;;;;;;;;;5021447;28;20032;-55
2023/09/16 07:06:49;;;;;;;134.77;126.10;;;;;;;;;;5016428;28;20025;-55
2023/09/16 07:09:15;;;;;;;67.53;63.07;;;;;;;;;;5018479;28;20048;-56
2023/09/16 07:11:40;;;;;;;193.13;180.03;;;;;;;;;;5020883;28;20025;-56
2023/09/16 07:14:05;;;;;;;278.88;260.58;;;;;;;;;;5022153;28;20436;-57
2023/09/16 07:16:35;;;;;;;57.73;53.97;;;;;;;;;;5023115;28;20025;-56
2023/09/16 07:19:00;;;;;;;97.97;91.85;;;;;;;;;;5011347;28;20045;-56
2023/09/16 07:21:26;;;;;;;130.05;121.70;;;;;;;;;;5015111;28;20065;-55
2023/09/16 07:23:51;;;;;;;167.27;155.17;;;;;;;;;;5011886;28;20032;-56
2023/09/16 07:26:16;;;;;;;128.45;117.57;;;;;;;;;;5013073;28;20025;-57
2023/09/16 07:28:41;;;;;;;197.50;179.80;;;;;;;;;;5011958;28;20026;-56
2023/09/16 07:31:06;;;;;;;151.07;139.85;;;;;;;;;;5023076;28;20018;-56
2023/09/16 07:33:31;;;;;;;113.70;104.93;;;;;;;;;;5015619;28;20091;-56
2023/09/16 07:35:57;;;;;;;110.03;102.77;;;;;;;;;;5015856;28;20026;-56
2023/09/16 07:38:22;;;;;;;115.35;107.78;;;;;;;;;;5018233;28;20385;-56
2023/09/16 07:40:50;;;;;;;181.40;168.00;;;;;;;;;;5021272;28;20029;-58
2023/09/16 07:43:17;;;;;;;104.47;97.30;;;;;;;;;;5013459;28;20025;-57
2023/09/16 07:45:42;;;;;;;113.70;106.22;;;;;;;;;;5018293;28;20026;-55
2023/09/16 07:48:09;;;;;;;268.33;247.20;;;;;;;;;;5018938;28;20044;-55
2023/09/16 07:50:34;;;;;;;75.50;70.78;;;;;;;;;;5018146;28;20021;-55
2023/09/16 07:52:59;;;;;;;232.98;215.60;;;;;;;;;;5010174;28;20048;-56
2023/09/16 07:55:25;;;;;;;177.27;164.47;;;;;;;;;;5014806;28;20065;-55
2023/09/16 07:57:50;;;;;;;232.10;214.80;;;;;;;;;;5013243;28;20026;-56
2023/09/16 08:00:15;;;;;;;211.77;195.18;;;;;;;;;;5020390;28;20028;-55
2023/09/16 08:02:40;;;;;;;203.13;189.40;;;;;;;;;;5024520;28;20045;-55
2023/09/16 08:05:05;;;;;;;164.13;151.93;;;;;;;;;;5013535;28;20061;-55
2023/09/16 08:07:31;;;;;;;202.80;188.93;;;;;;;;;;5020108;28;20128;-56
2023/09/16 08:09:56;;;;;;;157.57;147.13;;;;;;;;;;5016860;28;20504;-55
2023/09/16 08:12:23;;;;;;;243.87;225.07;;;;;;;;;;5017291;28;20026;-55
2023/09/16 08:14:48;;;;;;;195.40;181.20;;;;;;;;;;5015063;28;20014;-56
2023/09/16 08:17:13;;;;;;;149.67;139.83;;;;;;;;;;5013643;28;20374;-55
2023/09/16 08:19:38;;;;;;;109.05;102.03;;;;;;;;;;5018562;28;20025;-55
2023/09/16 08:22:03;;;;;;;200.70;185.53;;;;;;;;;;5012366;28;20091;-55
2023/09/16 08:24:30;;;;;;;200.50;186.37;;;;;;;;;;5017665;28;20132;-55
2023/09/16 08:26:55;;;;;;;274.42;252.65;;;;;;;;;;5014599;28;20026;-56
2023/09/16 08:29:20;;;;;;;287.77;265.60;;;;;;;;;;5022241;28;20167;-55
2023/09/16 08:31:45;;;;;;;125.17;116.97;;;;;;;;;;5016114;28;20037;-55
2023/09/16 08:34:10;;;;;;;182.43;170.40;;;;;;;;;;5016190;28;20041;-55
2023/09/16 08:36:35;;;;;;;189.20;175.67;;;;;;;;;;5017195;28;20034;-55
2023/09/16 08:39:02;;;;;;;;;;;;;;;;;;5019273;28;20047;-55
2023/09/16 08:41:39;;;;;;;247.70;227.05;;;;;;;;;;5017670;28;19909;-55
2023/09/16 08:44:05;;;;;;;280.92;260.40;;;;;;;;;;5012740;28;20026;-55
2023/09/16 08:46:32;;;;;;;218.98;205.20;;;;;;;;;;5026858;28;20354;-55
2023/09/16 08:48:59;;;;;;;287.73;262.77;;;;;;;;;;5013685;28;20452;-55
2023/09/16 08:51:24;;;;;;;264.73;244.50;;;;;;;;;;5018231;28;20096;-55
2023/09/16 08:53:51;;;;;;;241.27;224.18;;;;;;;;;;5016136;28;20201;-55
2023/09/16 08:56:17;;;;;;;166.50;155.05;;;;;;;;;;5014815;28;20020;-56
2023/09/16 08:58:43;;;;;;;228.18;209.73;;;;;;;;;;5016150;28;20108;-55
2023/09/16 09:01:08;;;;;;;;;;;;;;;;;;5026245;28;20026;-56
2023/09/16 09:03:33;;;;;;;288.65;265.52;;;;;;;;;;5016763;28;20004;-56
2023/09/16 09:05:59;;;;;;;173.38;160.00;;;;;;;;;;5014972;28;20605;-56
2023/09/16 09:08:24;;;;;;;288.05;266.02;;;;;;;;;;5025134;28;20160;-56
2023/09/16 09:10:49;;;;;;;156.38;146.40;;;;;;;;;;5018729;28;20017;-56
2023/09/16 09:13:15;;;;;;;135.45;126.88;;;;;;;;;;5021805;28;20077;-56
2023/09/16 09:15:41;;;;;;;251.93;233.05;;;;;;;;;;5022105;28;20097;-56
2023/09/16 09:18:07;;;;;;;273.25;250.48;;;;;;;;;;5021106;28;20113;-57
2023/09/16 09:20:32;;;;;;;;;;;;;;;;;;5018725;28;20021;-56
2023/09/16 09:22:59;;;;;;;226.27;208.02;;;;;;;;;;5021466;28;20000;-56
2023/09/16 09:25:26;;;;;;;261.42;242.43;;;;;;;;;;5022686;28;20045;-56
2023/09/16 09:27:51;;;;;;;231.73;213.25;;;;;;;;;;5021106;28;20070;-56
2023/09/16 09:30:21;;;;;;;321.95;297.05;;;;;;;;;;5021846;28;20104;-57
2023/09/16 09:32:46;;;;;;;268.08;246.35;;;;;;;;;;5023073;28;20030;-56
2023/09/16 09:35:11;;;;;;;316.67;293.50;;;;;;;;;;5017219;28;20184;-56
2023/09/16 09:37:37;;;;;;;198.83;183.80;;;;;;;;;;5027936;28;20029;-56
2023/09/16 09:40:06;;;;;;;215.25;198.18;;;;;;;;;;5026589;28;20571;-56
2023/09/16 09:42:31;;;;;;;172.35;160.45;;;;;;;;;;5024853;28;20098;-56
2023/09/16 09:45:00;;;;;;;278.40;257.87;;;;;;;;;;5018081;28;20045;-55
2023/09/16 09:47:25;;;;;;;234.18;217.18;;;;;;;;;;5018126;28;20018;-56
2023/09/16 09:49:50;;;;;;;240.40;223.03;;;;;;;;;;5019935;28;20030;-56
2023/09/16 09:52:15;;;;;;;285.00;263.90;;;;;;;;;;5016031;28;20483;-55
2023/09/16 09:54:40;;;;;;;;;;;;;;;;;;5015534;28;20494;-56
2023/09/16 09:57:07;;;;;;;219.77;205.02;;;;;;;;;;5023359;28;19909;-55
2023/09/16 09:59:32;;;;;;;282.45;254.27;;;;;;;;;;5021614;28;20081;-56
2023/09/16 10:02:01;;;;;;;191.68;176.20;;;;;;;;;;5021769;28;20488;-57
2023/09/16 10:04:26;;;;;;;202.32;189.13;;;;;;;;;;5019107;28;20026;-56
2023/09/16 10:06:51;;;;;;;211.33;197.43;;;;;;;;;;5019576;28;20544;-55
2023/09/16 10:09:17;;;;;;;;;;;;;;;;;;5021281;28;20031;-56
2023/09/16 10:11:42;;;;;;;358.83;328.50;;;;;;;;;;5020839;28;20387;-56
2023/09/16 10:14:07;;;;;;;;;;;;;;;;;;5027353;28;20041;-56
2023/09/16 10:16:33;;;;;;;363.40;339.08;;;;;;;;;;5020466;28;20015;-57
2023/09/16 10:18:58;;;;;;;;;;;;;;;;;;5024507;28;20679;-55
2023/09/16 10:21:23;;;;;;;348.13;320.25;;;;;;;;;;5016812;28;19921;-56
2023/09/16 10:23:50;;;;;;;328.98;303.13;;;;;;;;;;5012133;28;20030;-55
2023/09/16 10:26:16;;;;;;;282.58;260.70;;;;;;;;;;5018331;28;20013;-56
2023/09/16 10:28:43;;;;;;;282.00;262.23;;;;;;;;;;5021874;28;20029;-56
2023/09/16 10:31:08;;;;;;;241.95;224.88;;;;;;;;;;5022768;28;20028;-56
2023/09/16 10:33:34;;;;;;;332.60;305.77;;;;;;;;;;5014338;28;20400;-56
2023/09/16 10:35:59;;;;;;;349.15;317.88;;;;;;;;;;5023390;28;20021;-56
2023/09/16 10:38:25;;;;;;;301.17;277.77;;;;;;;;;;5019302;28;20552;-56
2023/09/16 10:40:50;;;;;;;345.30;317.30;;;;;;;;;;5029254;28;20022;-56
2023/09/16 10:43:15;;;;;;;348.52;319.98;;;;;;;;;;5021707;28;20029;-56
2023/09/16 10:45:41;;;;;;;312.90;285.00;;;;;;;;;;5026863;28;20013;-56
2023/09/16 10:48:06;;;;;;;219.55;203.90;;;;;;;;;;5017944;28;20022;-56
2023/09/16 10:50:36;;;;;;;262.48;240.45;;;;;;;;;;5016945;28;20013;-56
2023/09/16 10:53:19;;;;;;;355.67;328.88;;;;;;;;;;5017054;28;20040;-56
2023/09/16 10:55:51;;;;;;;384.60;353.17;;;;;;;;;;5023337;28;20049;-56
2023/09/16 10:58:17;;;;;;;;;;;;;;;;;;5019438;28;20120;-56
2023/09/16 11:00:50;;;;;;;381.67;353.10;;;;;;;;;;5012755;28;19935;-57
2023/09/16 11:03:16;;;;;;;444.13;379.23;;;;;;;;;;5015491;28;20937;-56
2023/09/16 11:05:41;;;;;;;489.95;441.42;;;;;;;;;;5017749;28;20021;-57
2023/09/16 11:08:07;;;;;;;365.55;334.13;;;;;;;;;;5021014;28;20109;-55
2023/09/16 11:10:32;;;;;;;273.95;254.43;;;;;;;;;;5022660;28;20021;-56
2023/09/16 11:12:58;;;;;;;337.63;311.07;;;;;;;;;;5015206;28;20031;-57
2023/09/16 11:15:30;;;;;;;419.60;381.00;;;;;;;;;;5014784;28;21027;-57
2023/09/16 11:18:04;;;;;;;354.75;322.95;;;;;;;;;;5015556;28;20029;-55
2023/09/16 11:20:32;;;;;;;284.27;260.33;;;;;;;;;;5014628;28;20489;-57
2023/09/16 11:23:01;;;;;;;276.00;252.70;;;;;;;;;;5022958;28;20025;-56
2023/09/16 11:25:29;;;;;;;322.20;292.73;;;;;;;;;;5011800;28;20050;-57
2023/09/16 11:27:55;;;;;;;224.48;205.93;;;;;;;;;;5014302;28;20041;-57
2023/09/16 11:30:20;;;;;;;336.25;311.60;;;;;;;;;;5015335;28;20125;-57
2023/09/16 11:33:08;;;;;;;323.63;294.73;;;;;;;;;;5014779;28;20044;-55
2023/09/16 11:35:35;;;;;;;288.73;266.90;;;;;;;;;;5016842;28;20461;-55
2023/09/16 11:38:01;;;;;;;399.00;364.42;;;;;;;;;;5011410;28;20028;-55
2023/09/16 11:40:31;;;;;;;357.70;331.10;;;;;;;;;;5017829;28;20022;-56
2023/09/16 11:42:56;;;;;;;279.50;253.32;;;;;;;;;;5013837;28;20041;-56
2023/09/16 11:45:21;;;;;;;222.60;205.53;;;;;;;;;;5011693;28;20029;-56
2023/09/16 11:47:47;;;;;;;;;;;;;;;;;;5016419;28;20072;-56
2023/09/16 11:50:22;;;;;;;286.02;262.73;;;;;;;;;;5020159;28;19935;-55
2023/09/16 11:52:47;;;;;;;384.88;354.20;;;;;;;;;;5015923;28;20029;-57
2023/09/16 11:55:13;;;;;;;398.13;366.50;;;;;;;;;;5014711;28;20074;-56
2023/09/16 11:57:39;;;;;;;332.25;304.60;;;;;;;;;;5016950;28;20602;-56
2023/09/16 12:00:05;;;;;;;321.77;295.50;;;;;;;;;;5013049;28;20030;-56
2023/09/16 12:02:30;;;;;;;;;;;;;;;;;;5011254;28;20113;-56
2023/09/16 12:04:55;;;;;;;372.13;341.13;;;;;;;;;;5009632;28;19952;-56
2023/09/16 12:07:24;;;;;;;436.53;399.73;;;;;;;;;;5019153;28;20496;-56
2023/09/16 12:09:50;;;;;;;334.35;305.58;;;;;;;;;;5013219;28;20022;-56
2023/09/16 12:12:16;;;;;;;351.98;325.67;;;;;;;;;;5013518;28;20047;-56
2023/09/16 12:14:42;;;;;;;357.77;328.40;;;;;;;;;;5013924;28;20044;-56
2023/09/16 12:17:07;;;;;;;;;;;;;;;;;;5015113;28;20018;-57
2023/09/16 12:19:33;;;;;;;316.67;291.98;;;;;;;;;;5011081;28;19909;-57
2023/09/16 12:21:58;;;;;;;357.08;327.90;;;;;;;;;;5022258;28;20021;-56
2023/09/16 12:24:24;;;;;;;;;;;;;;;;;;5014154;28;20060;-57
2023/09/16 12:26:49;;;;;;;345.40;318.48;;;;;;;;;;5014677;28;19909;-56
2023/09/16 12:29:15;;;;;;;320.77;294.85;;;;;;;;;;5020119;28;20108;-56
2023/09/16 12:31:40;;;;;;;389.20;357.42;;;;;;;;;;5021705;28;20044;-56
2023/09/16 12:34:06;;;;;;;336.23;309.95;;;;;;;;;;5020790;28;20079;-56
2023/09/16 12:36:31;;;;;;;;;;;;;;;;;;5014535;28;20029;-57
2023/09/16 12:38:58;;;;;;;426.98;390.15;;;;;;;;;;5013751;28;19916;-56
2023/09/16 12:41:27;;;;;;;286.15;262.92;;;;;;;;;;5016250;28;20025;-56
2023/09/16 12:43:53;;;;;;;454.73;420.02;;;;;;;;;;5030030;28;21267;-56
2023/09/16 12:46:22;;;;;;;355.33;325.27;;;;;;;;;;5014924;28;20024;-56
2023/09/16 12:48:49;;;;;;;400.63;366.83;;;;;;;;;;5016569;28;20033;-56
2023/09/16 12:51:14;;;;;;;338.02;311.52;;;;;;;;;;5024964;28;20869;-56
2023/09/16 12:53:41;;;;;;;391.90;359.73;;;;;;;;;;5023893;28;20022;-56
2023/09/16 12:56:06;;;;;;;399.58;367.23;;;;;;;;;;5026804;28;20018;-56
2023/09/16 12:58:31;;;;;;;420.97;384.30;;;;;;;;;;5020709;28;20022;-56
2023/09/16 13:00:57;;;;;;;439.73;398.67;;;;;;;;;;5025520;28;20022;-55
2023/09/16 13:03:23;;;;;;;411.77;375.43;;;;;;;;;;5017161;28;20033;-56
2023/09/16 13:05:48;;;;;;;;;;;;;;;;;;5024787;28;20025;-56
2023/09/16 13:08:14;;;;;;;349.80;321.75;;;;;;;;;;5022307;28;20005;-56
2023/09/16 13:10:40;;;;;;;420.45;387.85;;;;;;;;;;5022528;28;20020;-56
2023/09/16 13:13:05;;;;;;;425.57;387.30;;;;;;;;;;5015828;28;20038;-57
2023/09/16 13:15:30;;;;;;;335.67;310.80;;;;;;;;;;5021254;28;20017;-56
2023/09/16 13:17:59;;;;;;;422.63;386.50;;;;;;;;;;5014487;28;20026;-56
2023/09/16 13:20:25;;;;;;;409.80;376.50;;;;;;;;;;5015766;28;20163;-56
2023/09/16 13:22:54;;;;;;;374.85;340.15;;;;;;;;;;5016538;28;20112;-57
2023/09/16 13:25:40;;;;;;;414.38;383.55;;;;;;;;;;5027491;28;20028;-56
2023/09/16 13:28:08;;;;;;;498.42;459.52;;;;;;;;;;5023641;28;20104;-55
2023/09/16 13:30:35;;;;;;;418.02;384.40;;;;;;;;;;5022705;28;20021;-56
2023/09/16 13:33:00;;;;;;;378.48;348.35;;;;;;;;;;5020081;28;20036;-56
2023/09/16 13:35:26;;;;;;;422.83;386.50;;;;;;;;;;5018589;28;20385;-56
2023/09/16 13:37:51;;;;;;;426.87;388.53;;;;;;;;;;5023727;28;20492;-56
2023/09/16 13:40:18;;;;;;;438.67;400.83;;;;;;;;;;5018822;28;20017;-56
2023/09/16 13:42:43;;;;;;;466.60;429.08;;;;;;;;;;5022844;28;20476;-57
2023/09/16 13:45:08;;;;;;;404.57;371.67;;;;;;;;;;5022626;28;20030;-55
2023/09/16 13:47:33;;;;;;;;;;;;;;;;;;5021354;28;20048;-56
2023/09/16 13:49:59;;;;;;;559.45;516.83;;;;;;;;;;5020351;28;19996;-56
2023/09/16 13:52:24;;;;;;;395.27;364.10;;;;;;;;;;5022621;28;20021;-56
2023/09/16 13:54:49;;;;;;;;;;;;;;;;;;5026017;28;20034;-56
2023/09/16 13:57:14;;;;;;;419.33;385.77;;;;;;;;;;5012699;28;19910;-56
2023/09/16 13:59:39;;;;;;;449.20;412.47;;;;;;;;;;5022087;28;20025;-55
2023/09/16 14:02:04;;;;;;;;;;;;;;;;;;5021797;28;20095;-56
2023/09/16 14:04:30;;;;;;;344.60;318.15;;;;;;;;;;5028656;28;19919;-56